createdAt,value
2018-03-23T00:01:48.024Z,96.04
2018-03-23T00:04:14.103Z,96.04
2018-03-23T00:09:33.216Z,95.91
2018-03-23T00:11:59.275Z,95.78
2018-03-23T00:14:25.364Z,95.85
2018-03-23T00:16:51.478Z,95.88
2018-03-23T00:19:17.838Z,95.75
2018-03-23T00:21:43.929Z,95.76
2018-03-23T00:24:09.966Z,95.76
2018-03-23T00:26:36.020Z,95.81
2018-03-23T00:29:02.061Z,95.89
2018-03-23T00:31:28.126Z,95.90
2018-03-23T00:33:54.164Z,95.98
2018-03-23T00:36:20.257Z,95.83
2018-03-23T00:38:46.568Z,95.69
2018-03-23T00:41:12.614Z,95.56
2018-03-23T00:43:38.674Z,95.53
2018-03-23T00:46:04.731Z,95.37
2018-03-23T00:48:30.784Z,95.17
2018-03-23T00:50:56.884Z,95.20
2018-03-23T00:53:22.948Z,95.14
2018-03-23T00:55:48.991Z,95.02
2018-03-23T00:58:15.032Z,95.12
2018-03-23T01:00:41.319Z,95.30
2018-03-23T01:03:07.345Z,95.23
2018-03-23T01:05:33.428Z,95.20
2018-03-23T01:07:59.478Z,95.31
2018-03-23T01:10:25.546Z,95.29
2018-03-23T01:12:51.643Z,95.33
2018-03-23T01:15:17.882Z,95.31
2018-03-23T01:17:43.967Z,95.23
2018-03-23T01:20:10.156Z,95.31
2018-03-23T01:22:36.224Z,95.41
2018-03-23T01:25:02.237Z,95.56
2018-03-23T01:27:28.391Z,95.59
2018-03-23T01:29:54.440Z,95.70
2018-03-23T01:32:20.446Z,95.67
2018-03-23T01:34:46.488Z,95.76
2018-03-23T01:37:12.515Z,95.84
2018-03-23T01:39:38.571Z,95.95
2018-03-23T01:42:04.598Z,96.08
2018-03-23T01:44:30.643Z,96.21
2018-03-23T01:46:56.675Z,96.29
2018-03-23T01:49:22.707Z,96.38
2018-03-23T01:51:48.790Z,96.42
2018-03-23T01:54:14.796Z,96.51
2018-03-23T01:56:41.012Z,96.52
2018-03-23T01:59:07.030Z,96.61
2018-03-23T02:01:33.087Z,96.63
2018-03-23T02:03:59.139Z,96.70
2018-03-23T02:06:25.402Z,96.69
2018-03-23T02:08:51.520Z,96.79
2018-03-23T02:11:17.574Z,96.90
2018-03-23T02:13:43.622Z,96.93
2018-03-23T02:16:09.720Z,96.96
2018-03-23T02:18:35.807Z,96.98
2018-03-23T02:21:01.860Z,96.98
2018-03-23T02:23:27.984Z,97.02
2018-03-23T02:25:54.027Z,97.07
2018-03-23T02:28:20.060Z,97.15
2018-03-23T02:30:46.095Z,97.17
2018-03-23T02:33:12.168Z,97.17
2018-03-23T02:35:38.341Z,97.27
2018-03-23T02:38:04.428Z,97.32
2018-03-23T02:40:30.541Z,97.35
2018-03-23T02:42:56.592Z,97.32
2018-03-23T02:45:22.683Z,97.41
2018-03-23T02:47:48.723Z,97.43
2018-03-23T02:50:14.760Z,97.40
2018-03-23T02:52:40.849Z,97.50
2018-03-23T02:55:06.873Z,97.51
2018-03-23T02:57:33.123Z,97.48
2018-03-23T02:59:59.135Z,97.55
2018-03-23T03:02:25.236Z,97.57
2018-03-23T03:04:51.289Z,97.61
2018-03-23T03:07:17.311Z,97.58
2018-03-23T03:09:43.323Z,97.61
2018-03-23T03:12:09.388Z,97.60
2018-03-23T03:14:35.505Z,97.66
2018-03-23T03:17:01.706Z,97.68
2018-03-23T03:19:27.754Z,97.65
2018-03-23T03:21:53.803Z,97.64
2018-03-23T03:24:19.871Z,97.64
2018-03-23T03:26:45.900Z,97.65
2018-03-23T03:29:11.935Z,97.61
2018-03-23T03:31:37.991Z,97.67
2018-03-23T03:34:04.006Z,97.60
2018-03-23T03:36:30.071Z,97.64
2018-03-23T03:38:56.108Z,97.70
2018-03-23T03:44:15.240Z,97.75
2018-03-23T03:46:41.468Z,97.81
2018-03-23T03:49:07.530Z,97.87
2018-03-23T03:51:33.788Z,97.91
2018-03-23T03:53:59.904Z,97.92
2018-03-23T03:56:26.036Z,97.94
2018-03-23T03:58:52.190Z,97.97
2018-03-23T04:01:18.245Z,98.03
2018-03-23T04:03:44.323Z,98.06
2018-03-23T04:06:10.533Z,98.04
2018-03-23T04:08:36.552Z,98.03
2018-03-23T04:11:02.649Z,97.96
2018-03-23T04:13:28.701Z,97.97
2018-03-23T04:15:54.812Z,97.95
2018-03-23T04:18:20.880Z,97.85
2018-03-23T04:20:47.112Z,97.84
2018-03-23T04:23:13.218Z,97.78
2018-03-23T04:25:39.294Z,97.63
2018-03-23T04:28:05.361Z,97.56
2018-03-23T04:30:31.410Z,97.54
2018-03-23T04:32:57.508Z,97.49
2018-03-23T04:35:23.575Z,97.33
2018-03-23T04:37:49.622Z,96.97
2018-03-23T04:40:15.659Z,96.71
2018-03-23T04:42:41.677Z,96.40
2018-03-23T04:45:07.900Z,96.15
2018-03-23T04:47:33.914Z,94.91
2018-03-23T04:50:00.017Z,93.97
2018-03-23T04:52:26.062Z,93.55
2018-03-23T04:54:52.116Z,92.69
2018-03-23T04:57:18.283Z,92.34
2018-03-23T04:59:44.322Z,91.96
2018-03-23T05:02:10.388Z,91.58
2018-03-23T05:04:36.418Z,91.04
2018-03-23T05:07:02.705Z,90.78
2018-03-23T05:09:28.737Z,90.56
2018-03-23T05:11:54.774Z,90.91
2018-03-23T05:14:20.846Z,90.31
2018-03-23T05:16:46.951Z,89.73
2018-03-23T05:19:13.175Z,89.80
2018-03-23T05:21:39.235Z,89.28
2018-03-23T05:24:05.278Z,89.28
2018-03-23T05:26:31.333Z,89.40
2018-03-23T05:28:57.414Z,89.54
2018-03-23T05:31:23.475Z,89.51
2018-03-23T05:33:49.603Z,90.04
2018-03-23T05:36:15.655Z,90.32
2018-03-23T05:38:41.767Z,90.32
2018-03-23T05:41:07.842Z,90.83
2018-03-23T05:43:33.909Z,90.77
2018-03-23T05:45:59.965Z,90.75
2018-03-23T05:48:26.012Z,91.09
2018-03-23T05:50:52.256Z,91.33
2018-03-23T05:53:18.310Z,91.28
2018-03-23T05:55:44.348Z,91.55
2018-03-23T05:58:10.654Z,91.62
2018-03-23T06:00:36.814Z,91.75
2018-03-23T06:03:02.891Z,91.47
2018-03-23T06:05:29.217Z,91.69
2018-03-23T06:07:55.426Z,91.86
2018-03-23T06:10:21.465Z,91.71
2018-03-23T06:12:47.540Z,91.62
2018-03-23T06:15:13.606Z,91.17
2018-03-23T06:17:39.766Z,91.04
2018-03-23T06:20:05.834Z,90.86
2018-03-23T06:22:31.999Z,91.00
2018-03-23T06:24:58.088Z,91.05
2018-03-23T06:27:24.119Z,90.87
2018-03-23T06:29:50.192Z,90.97
2018-03-23T06:32:16.393Z,91.26
2018-03-23T06:34:42.450Z,91.14
2018-03-23T06:37:08.511Z,91.18
2018-03-23T06:39:34.579Z,91.13
2018-03-23T06:42:00.953Z,91.22
2018-03-23T06:44:27.064Z,91.40
2018-03-23T06:46:53.248Z,91.36
2018-03-23T06:49:19.286Z,91.11
2018-03-23T06:51:45.342Z,91.17
2018-03-23T06:54:11.626Z,91.13
2018-03-23T06:56:37.837Z,90.83
2018-03-23T06:59:03.920Z,91.01
2018-03-23T07:01:30.002Z,90.89
2018-03-23T07:03:56.143Z,90.91
2018-03-23T07:06:22.781Z,90.66
2018-03-23T07:08:49.045Z,90.50
2018-03-23T07:11:15.129Z,90.68
2018-03-23T07:13:41.184Z,90.88
2018-03-23T07:16:07.265Z,90.76
2018-03-23T07:18:33.460Z,90.13
2018-03-23T07:20:59.546Z,90.07
2018-03-23T07:23:25.582Z,89.19
2018-03-23T07:25:51.662Z,88.92
2018-03-23T07:28:17.683Z,89.20
2018-03-23T07:30:43.909Z,89.70
2018-03-23T07:33:10.027Z,89.91
2018-03-23T07:35:36.055Z,89.81
2018-03-23T07:38:02.106Z,89.99
2018-03-23T07:40:28.212Z,90.29
2018-03-23T07:42:54.224Z,90.61
2018-03-23T07:45:20.282Z,90.46
2018-03-23T07:47:46.399Z,90.90
2018-03-23T07:50:12.472Z,91.05
2018-03-23T07:52:38.687Z,91.46
2018-03-23T07:55:04.738Z,91.62
2018-03-23T07:57:30.786Z,91.78
2018-03-23T07:59:56.824Z,91.79
2018-03-23T08:02:22.881Z,91.44
2018-03-23T08:04:48.920Z,91.17
2018-03-23T08:07:14.992Z,90.90
2018-03-23T08:09:41.050Z,90.95
2018-03-23T08:12:07.122Z,91.08
2018-03-23T08:14:33.157Z,91.18
2018-03-23T08:16:59.220Z,91.26
2018-03-23T08:19:25.285Z,91.22
2018-03-23T08:21:51.359Z,91.05
2018-03-23T08:24:17.456Z,90.92
2018-03-23T08:26:43.480Z,90.63
2018-03-23T08:29:09.500Z,90.45
2018-03-23T08:31:35.556Z,90.71
2018-03-23T08:34:01.612Z,90.83
2018-03-23T08:36:27.693Z,90.70
2018-03-23T08:38:53.744Z,90.45
2018-03-23T08:41:19.825Z,89.89
2018-03-23T08:43:45.906Z,89.68
2018-03-23T08:46:12.476Z,89.97
2018-03-23T08:48:38.599Z,89.75
2018-03-23T08:51:04.664Z,89.40
2018-03-23T08:53:30.939Z,89.46
2018-03-23T08:55:56.981Z,88.91
2018-03-23T08:58:23.041Z,88.63
2018-03-23T09:00:49.152Z,88.52
2018-03-23T09:03:15.191Z,88.27
2018-03-23T09:05:41.236Z,87.92
2018-03-23T09:08:07.253Z,88.06
2018-03-23T09:10:33.336Z,87.93
2018-03-23T09:12:59.379Z,87.70
2018-03-23T09:15:25.485Z,87.73
2018-03-23T09:17:51.510Z,88.36
2018-03-23T09:20:17.584Z,86.93
2018-03-23T09:22:43.604Z,87.02
2018-03-23T09:25:09.602Z,86.95
2018-03-23T09:27:35.685Z,86.37
2018-03-23T09:30:01.689Z,85.88
2018-03-23T09:32:27.760Z,85.24
2018-03-23T09:34:53.764Z,85.28
2018-03-23T09:37:19.915Z,85.41
2018-03-23T09:39:45.978Z,85.64
2018-03-23T09:42:12.020Z,85.43
2018-03-23T09:44:38.034Z,85.38
2018-03-23T09:47:04.071Z,85.43
2018-03-23T09:49:30.203Z,86.32
2018-03-23T09:51:56.253Z,85.99
2018-03-23T09:54:22.328Z,86.08
2018-03-23T09:56:48.376Z,86.60
2018-03-23T09:59:14.560Z,86.70
2018-03-23T10:01:40.626Z,86.19
2018-03-23T10:04:06.710Z,85.60
2018-03-23T10:06:32.716Z,83.93
2018-03-23T10:08:58.827Z,82.98
2018-03-23T10:11:24.900Z,82.88
2018-03-23T10:13:50.984Z,83.30
2018-03-23T10:16:17.033Z,83.62
2018-03-23T10:18:43.050Z,84.39
2018-03-23T10:21:09.181Z,84.55
2018-03-23T10:23:35.248Z,84.17
2018-03-23T10:26:01.328Z,83.04
2018-03-23T10:28:27.358Z,82.62
2018-03-23T10:30:53.502Z,83.03
2018-03-23T10:33:19.534Z,82.69
2018-03-23T10:35:45.782Z,82.16
2018-03-23T10:38:11.825Z,81.82
2018-03-23T10:40:37.875Z,81.98
2018-03-23T10:43:03.968Z,82.27
2018-03-23T10:45:30.008Z,81.78
2018-03-23T10:47:56.060Z,80.70
2018-03-23T10:50:22.110Z,80.41
2018-03-23T10:52:48.184Z,82.06
2018-03-23T10:55:14.311Z,82.20
2018-03-23T10:57:40.355Z,81.63
2018-03-23T11:00:06.430Z,81.25
2018-03-23T11:02:42.443Z,81.93
2018-03-23T11:05:08.698Z,81.98
2018-03-23T11:07:34.788Z,81.00
2018-03-23T11:10:00.844Z,79.51
2018-03-23T11:12:26.912Z,78.38
2018-03-23T11:14:53.104Z,77.98
2018-03-23T11:17:19.313Z,78.40
2018-03-23T11:19:45.392Z,78.03
2018-03-23T11:22:11.417Z,78.24
2018-03-23T11:24:37.459Z,77.03
2018-03-23T11:27:03.503Z,74.70
2018-03-23T11:29:29.621Z,71.76
2018-03-23T11:31:55.693Z,73.37
2018-03-23T11:34:21.840Z,70.08
2018-03-23T11:36:47.881Z,71.62
2018-03-23T11:39:13.941Z,71.03
2018-03-23T11:41:40.130Z,70.76
2018-03-23T11:44:06.232Z,70.72
2018-03-23T11:46:32.399Z,73.23
2018-03-23T11:48:58.451Z,72.76
2018-03-23T11:51:24.600Z,72.78
2018-03-23T11:53:50.658Z,73.34
2018-03-23T11:56:16.715Z,74.40
2018-03-23T11:58:42.751Z,74.78
2018-03-23T12:01:09.012Z,73.34
2018-03-23T12:06:28.237Z,73.93
2018-03-23T12:08:54.368Z,74.18
2018-03-23T12:11:20.466Z,74.15
2018-03-23T12:13:46.502Z,72.69
2018-03-23T12:16:12.564Z,72.32
2018-03-23T12:18:38.919Z,73.83
2018-03-23T12:21:04.947Z,71.75
2018-03-23T12:23:30.981Z,71.54
2018-03-23T12:25:57.020Z,72.20
2018-03-23T12:28:23.088Z,71.24
2018-03-23T12:30:49.132Z,71.37
2018-03-23T12:33:15.223Z,72.57
2018-03-23T12:35:41.306Z,74.07
2018-03-23T12:38:07.367Z,71.94
2018-03-23T12:40:33.471Z,71.85
2018-03-23T12:42:59.576Z,71.30
2018-03-23T12:45:25.724Z,70.57
2018-03-23T12:47:51.785Z,71.13
2018-03-23T12:50:17.903Z,70.69
2018-03-23T12:52:44.070Z,69.73
2018-03-23T12:55:10.107Z,71.17
2018-03-23T12:57:36.157Z,69.46
2018-03-23T13:00:02.224Z,67.89
2018-03-23T13:02:28.417Z,64.49
2018-03-23T13:04:54.544Z,63.42
2018-03-23T13:07:20.586Z,64.23
2018-03-23T13:09:46.657Z,65.85
2018-03-23T13:12:12.732Z,66.30
2018-03-23T13:14:38.938Z,67.15
2018-03-23T13:17:04.995Z,64.92
2018-03-23T13:19:31.013Z,63.01
2018-03-23T13:21:57.192Z,62.73
2018-03-23T13:24:23.235Z,61.13
2018-03-23T13:26:49.391Z,61.67
2018-03-23T13:29:15.450Z,64.30
2018-03-23T13:31:41.588Z,64.31
2018-03-23T13:34:07.606Z,64.80
2018-03-23T13:36:33.673Z,65.04
2018-03-23T13:38:59.817Z,65.78
2018-03-23T13:41:25.941Z,66.42
2018-03-23T13:43:52.038Z,67.19
2018-03-23T13:46:18.092Z,66.84
2018-03-23T13:48:44.207Z,67.55
2018-03-23T13:51:10.280Z,67.58
2018-03-23T13:53:36.325Z,67.70
2018-03-23T13:56:02.382Z,68.22
2018-03-23T13:58:34.428Z,67.95
2018-03-23T14:01:01.340Z,68.66
2018-03-23T14:03:27.397Z,69.83
2018-03-23T14:05:53.492Z,69.09
2018-03-23T14:08:19.600Z,69.15
2018-03-23T14:10:45.796Z,67.74
2018-03-23T14:13:11.887Z,68.08
2018-03-23T14:15:38.087Z,68.01
2018-03-23T14:18:04.127Z,67.25
2018-03-23T14:20:30.164Z,66.19
2018-03-23T14:22:56.236Z,65.98
2018-03-23T14:25:22.279Z,66.60
2018-03-23T14:27:48.331Z,67.38
2018-03-23T14:30:14.405Z,66.81
2018-03-23T14:32:40.432Z,67.56
2018-03-23T14:35:06.488Z,67.30
2018-03-23T14:37:32.556Z,67.09
2018-03-23T14:39:58.679Z,68.21
2018-03-23T14:42:24.711Z,68.02
2018-03-23T14:44:50.863Z,68.56
2018-03-23T14:47:16.899Z,68.65
2018-03-23T14:49:42.999Z,68.71
2018-03-23T14:52:09.183Z,69.44
2018-03-23T14:54:35.207Z,69.13
2018-03-23T14:57:01.361Z,70.17
2018-03-23T14:59:27.379Z,68.95
2018-03-23T15:01:53.547Z,69.21
2018-03-23T15:04:19.560Z,68.70
2018-03-23T15:06:45.648Z,69.32
2018-03-23T15:09:11.711Z,68.96
2018-03-23T15:11:37.811Z,68.29
2018-03-23T15:14:15.154Z,68.95
2018-03-23T15:16:41.188Z,67.37
2018-03-23T15:19:07.266Z,67.23
2018-03-23T15:21:33.274Z,67.53
2018-03-23T15:23:59.301Z,67.61
2018-03-23T15:26:25.440Z,67.93
2018-03-23T15:28:51.539Z,67.65
2018-03-23T15:31:17.609Z,69.05
2018-03-23T15:33:43.685Z,67.80
2018-03-23T15:36:09.775Z,68.23
2018-03-23T15:38:35.954Z,67.77
2018-03-23T15:41:02.114Z,69.31
2018-03-23T15:43:28.208Z,69.57
2018-03-23T15:45:54.249Z,70.21
2018-03-23T15:48:20.321Z,69.74
2018-03-23T15:50:46.436Z,68.66
2018-03-23T15:53:12.472Z,69.41
2018-03-23T15:55:38.558Z,69.36
2018-03-23T15:58:04.663Z,71.06
2018-03-23T16:00:30.680Z,71.23
2018-03-23T16:02:56.827Z,71.46
2018-03-23T16:05:22.898Z,70.75
2018-03-23T16:07:48.977Z,70.34
2018-03-23T16:10:15.330Z,70.10
2018-03-23T16:12:41.406Z,71.13
2018-03-23T16:15:07.729Z,70.96
2018-03-23T16:17:33.802Z,71.07
2018-03-23T16:19:59.815Z,71.43
2018-03-23T16:22:25.930Z,71.08
2018-03-23T16:24:51.989Z,70.08
2018-03-23T16:27:18.335Z,71.37
2018-03-23T16:29:44.408Z,70.32
2018-03-23T16:32:10.452Z,70.65
2018-03-23T16:34:36.542Z,70.95
2018-03-23T16:37:02.563Z,71.17
2018-03-23T16:39:28.604Z,72.18
2018-03-23T16:41:54.645Z,71.58
2018-03-23T16:44:20.721Z,71.37
2018-03-23T16:46:46.757Z,71.77
2018-03-23T16:49:12.846Z,71.63
2018-03-23T16:51:38.891Z,72.64
2018-03-23T16:54:05.310Z,72.64
2018-03-23T16:56:31.696Z,72.61
2018-03-23T16:58:57.913Z,72.52
2018-03-23T17:01:24.157Z,73.12
2018-03-23T17:03:50.217Z,73.67
2018-03-23T17:06:16.534Z,73.17
2018-03-23T17:08:42.642Z,73.47
2018-03-23T17:11:08.899Z,74.00
2018-03-23T17:13:34.994Z,73.72
2018-03-23T17:16:01.966Z,73.11
2018-03-23T17:18:28.059Z,73.62
2018-03-23T17:20:54.227Z,73.42
2018-03-23T17:23:20.321Z,73.75
2018-03-23T17:25:46.390Z,74.52
2018-03-23T17:28:13.174Z,75.23
2018-03-23T17:30:39.301Z,75.16
2018-03-23T17:33:05.341Z,74.58
2018-03-23T17:35:31.478Z,75.18
2018-03-23T17:37:57.502Z,74.51
2018-03-23T17:40:23.619Z,75.30
2018-03-23T17:42:49.703Z,75.89
2018-03-23T17:45:16.154Z,75.81
2018-03-23T17:47:42.224Z,75.65
2018-03-23T17:50:08.315Z,76.11
2018-03-23T17:52:34.350Z,76.43
2018-03-23T17:55:00.367Z,76.71
2018-03-23T17:57:26.438Z,76.91
2018-03-23T17:59:52.463Z,76.55
2018-03-23T18:02:18.829Z,76.49
2018-03-23T18:04:44.900Z,76.49
2018-03-23T18:07:11.001Z,76.56
2018-03-23T18:09:37.146Z,77.56
2018-03-23T18:12:03.205Z,77.36
2018-03-23T18:14:29.340Z,76.70
2018-03-23T18:16:55.403Z,77.03
2018-03-23T18:19:21.488Z,76.91
2018-03-23T18:21:47.659Z,76.69
2018-03-23T18:24:13.774Z,77.31
2018-03-23T18:26:39.945Z,77.19
2018-03-23T18:29:06.944Z,77.55
2018-03-23T18:31:33.039Z,77.69
2018-03-23T18:33:59.292Z,78.11
2018-03-23T18:36:25.540Z,77.81
2018-03-23T18:38:51.671Z,78.14
2018-03-23T18:41:17.779Z,78.52
2018-03-23T18:43:43.826Z,78.87
2018-03-23T18:46:09.933Z,78.41
2018-03-23T18:48:36.033Z,78.78
2018-03-23T18:51:02.085Z,78.92
2018-03-23T18:53:28.286Z,78.86
2018-03-23T18:55:54.342Z,79.12
2018-03-23T18:58:20.421Z,78.90
2018-03-23T19:00:46.540Z,79.31
2018-03-23T19:03:12.755Z,79.34
2018-03-23T19:05:38.850Z,79.60
2018-03-23T19:08:05.220Z,79.41
2018-03-23T19:10:31.452Z,79.61
2018-03-23T19:12:57.566Z,79.64
2018-03-23T19:15:23.702Z,79.97
2018-03-23T19:17:50.406Z,80.28
2018-03-23T19:20:16.601Z,80.59
2018-03-23T19:22:42.716Z,80.52
2018-03-23T19:25:08.812Z,81.16
2018-03-23T19:27:35.050Z,80.93
2018-03-23T19:30:01.552Z,81.16
2018-03-23T19:32:27.617Z,81.02
2018-03-23T19:34:53.741Z,81.59
2018-03-23T19:37:19.930Z,81.43
2018-03-23T19:39:46.167Z,81.35
2018-03-23T19:42:12.405Z,81.33
2018-03-23T19:44:38.511Z,81.02
2018-03-23T19:47:04.665Z,80.40
2018-03-23T19:49:30.779Z,80.48
2018-03-23T19:51:57.089Z,80.55
2018-03-23T19:54:23.177Z,80.12
2018-03-23T19:56:49.336Z,79.77
2018-03-23T19:59:15.401Z,80.00
2018-03-23T20:01:41.502Z,79.80
2018-03-23T20:04:07.656Z,79.62
2018-03-23T20:06:33.872Z,79.97
2018-03-23T20:08:59.962Z,79.82
2018-03-23T20:11:26.130Z,79.84
2018-03-23T20:13:58.281Z,80.09
2018-03-23T20:16:24.743Z,79.52
2018-03-23T20:18:51.794Z,79.82
2018-03-23T20:21:18.562Z,79.50
2018-03-23T20:23:44.865Z,79.81
2018-03-23T20:26:11.052Z,79.88
2018-03-23T20:28:40.162Z,80.31
2018-03-23T20:31:06.222Z,80.24
2018-03-23T20:33:32.397Z,80.68
2018-03-23T20:35:58.484Z,80.97
2018-03-23T20:38:24.743Z,81.09
2018-03-23T20:40:50.822Z,81.12
2018-03-23T20:43:17.070Z,81.17
2018-03-23T20:45:43.192Z,81.24
2018-03-23T20:48:09.344Z,81.62
2018-03-23T20:50:35.471Z,81.74
2018-03-23T20:53:01.636Z,81.82
2018-03-23T20:55:27.737Z,81.93
2018-03-23T20:57:53.800Z,82.04
2018-03-23T21:00:19.966Z,82.23
2018-03-23T21:02:46.122Z,82.26
2018-03-23T21:05:12.203Z,82.30
2018-03-23T21:07:38.435Z,82.65
2018-03-23T21:10:04.653Z,82.89
2018-03-23T21:12:30.794Z,82.76
2018-03-23T21:14:57.041Z,82.98
2018-03-23T21:17:23.179Z,83.06
2018-03-23T21:19:49.267Z,83.19
2018-03-23T21:22:15.496Z,83.26
2018-03-23T21:24:41.603Z,83.24
2018-03-23T21:27:07.671Z,83.42
2018-03-23T21:29:33.836Z,83.22
2018-03-23T21:31:59.934Z,83.51
2018-03-23T21:34:26.071Z,83.25
2018-03-23T21:36:52.207Z,83.23
2018-03-23T21:39:18.358Z,83.29
2018-03-23T21:41:44.483Z,83.39
2018-03-23T21:44:10.544Z,83.45
2018-03-23T21:46:36.647Z,83.29
2018-03-23T21:49:02.791Z,83.09
2018-03-23T21:51:28.994Z,83.25
2018-03-23T21:53:55.196Z,83.12
2018-03-23T21:56:21.381Z,83.06
2018-03-23T21:58:47.592Z,83.16
2018-03-23T22:01:13.836Z,83.37
2018-03-23T22:03:39.980Z,83.42
2018-03-23T22:06:06.198Z,83.35
2018-03-23T22:08:32.468Z,83.29
2018-03-23T22:10:58.684Z,82.97
2018-03-23T22:13:24.793Z,82.98
2018-03-23T22:15:51.053Z,83.04
2018-03-23T22:18:17.221Z,83.31
2018-03-23T22:20:43.299Z,82.99
2018-03-23T22:23:09.502Z,83.27
2018-03-23T22:25:35.705Z,82.99
2018-03-23T22:28:01.765Z,83.25
2018-03-23T22:30:27.822Z,83.22
2018-03-23T22:32:53.922Z,83.46
2018-03-23T22:35:20.044Z,83.51
2018-03-23T22:37:46.113Z,83.64
2018-03-23T22:40:12.261Z,83.62
2018-03-23T22:42:38.384Z,83.68
2018-03-23T22:45:04.535Z,83.79
2018-03-23T22:47:30.709Z,83.72
2018-03-23T22:49:56.772Z,83.87
2018-03-23T22:52:22.854Z,84.05
2018-03-23T22:54:48.909Z,83.91
2018-03-23T22:57:14.977Z,83.76
2018-03-23T22:59:41.121Z,84.07
2018-03-23T23:02:07.212Z,84.12
2018-03-23T23:04:33.262Z,84.15
2018-03-23T23:06:59.289Z,84.24
2018-03-23T23:12:18.576Z,84.16
2018-03-23T23:14:44.660Z,84.23
2018-03-23T23:17:10.759Z,84.27
2018-03-23T23:19:36.847Z,84.31
2018-03-23T23:22:02.914Z,84.23
2018-03-23T23:24:28.980Z,84.35
2018-03-23T23:26:55.065Z,84.37
2018-03-23T23:29:21.148Z,84.46
2018-03-23T23:31:47.212Z,84.42
2018-03-23T23:34:13.284Z,84.41
2018-03-23T23:36:39.440Z,84.45
2018-03-23T23:39:05.463Z,84.37
2018-03-23T23:41:31.499Z,84.36
2018-03-23T23:43:57.546Z,84.53
2018-03-23T23:46:23.709Z,84.64
2018-03-23T23:48:49.762Z,84.82
2018-03-23T23:51:15.955Z,84.50
2018-03-23T23:53:42.030Z,84.58
2018-03-23T23:56:08.074Z,84.54
2018-03-23T23:58:34.395Z,84.74
